Time;durP1;ratioP1;P1;durP2;ratioP2;P2;SDS_P1;SDS_P2;PMS_P1;PMS_P2;Temp;Humidity;BMP_temperature;BMP_pressure;BME280_temperature;BME280_humidity;BME280_pressure;Samples;Min_cycle;Max_cycle;Signal;HPM_P1;HPM_P2
2022/04/02 00:00:39;;;;;;;15.80;3.20;;;;;;;1.93;58.08;99110.34;106168;1271;22614;-62
2022/04/02 00:03:12;;;;;;;14.80;2.80;;;;;;;1.92;57.80;99105.36;106068;1271;22552;-61
2022/04/02 00:05:43;;;;;;;10.50;2.20;;;;;;;1.89;57.96;99108.43;106079;1271;24698;-61
2022/04/02 00:08:21;;;;;;;15.90;2.90;;;;;;;1.87;57.99;99105.20;106151;1270;22711;-61
2022/04/02 00:10:53;;;;;;;13.70;2.80;;;;;;;1.85;57.23;99101.91;106107;1271;24259;-60
2022/04/02 00:13:24;;;;;;;15.90;3.10;;;;;;;1.83;57.74;99097.17;105962;1270;22541;-62
2022/04/02 00:15:57;;;;;;;13.90;3.20;;;;;;;1.81;57.52;99097.88;106046;1271;22541;-61
2022/04/02 00:18:29;;;;;;;14.50;2.80;;;;;;;1.79;57.65;99099.60;106006;1270;22544;-62
2022/04/02 00:21:00;;;;;;;12.90;3.10;;;;;;;1.77;57.96;99098.73;106065;1270;26514;-61
2022/04/02 00:23:40;;;;;;;13.20;2.80;;;;;;;1.76;57.82;99096.48;106169;1270;22568;-61
2022/04/02 00:26:13;;;;;;;13.70;2.70;;;;;;;1.75;57.83;99094.95;106123;1271;26648;-59
2022/04/02 00:28:48;;;;;;;17.40;3.50;;;;;;;1.74;58.10;99097.41;106177;1270;25252;-60
2022/04/02 00:31:21;;;;;;;14.80;2.60;;;;;;;1.74;58.29;99093.50;105965;1271;25523;-61
2022/04/02 00:33:52;;;;;;;19.10;3.30;;;;;;;1.72;58.38;99098.59;106113;1270;25307;-61
2022/04/02 00:36:24;;;;;;;16.60;3.10;;;;;;;1.70;58.42;99093.69;106103;1270;24781;-61
2022/04/02 00:38:56;;;;;;;13.80;2.90;;;;;;;1.71;58.35;99092.60;106118;1270;22546;-61
2022/04/02 00:41:27;;;;;;;12.60;2.50;;;;;;;1.70;58.11;99095.04;106323;1270;22585;-62
2022/04/02 00:44:01;;;;;;;15.90;3.10;;;;;;;1.69;58.31;99094.05;106139;1270;22641;-60
2022/04/02 00:46:32;;;;;;;15.80;4.10;;;;;;;1.68;58.68;99093.38;106029;1270;22613;-62
2022/04/02 00:49:05;;;;;;;21.50;3.70;;;;;;;1.69;58.15;99094.77;105920;1271;22553;-60
2022/04/02 00:51:41;;;;;;;17.30;3.30;;;;;;;1.67;58.40;99093.97;106037;1270;23320;-62
2022/04/02 00:54:15;;;;;;;18.20;3.40;;;;;;;1.66;58.76;99095.98;106025;1270;24214;-60
2022/04/02 00:56:47;;;;;;;22.40;4.70;;;;;;;1.65;58.65;99091.52;106113;1270;22609;-62
2022/04/02 00:59:18;;;;;;;18.40;3.70;;;;;;;1.65;58.67;99090.02;106164;1270;22561;-61
2022/04/02 01:01:50;;;;;;;16.50;2.80;;;;;;;1.65;58.56;99093.30;106181;1271;25567;-61
2022/04/02 01:04:22;;;;;;;17.00;3.90;;;;;;;1.63;58.50;99093.23;105977;1270;22553;-62
2022/04/02 01:06:54;;;;;;;14.30;2.70;;;;;;;1.62;58.55;99096.16;106037;1270;22516;-59
2022/04/02 01:09:26;;;;;;;16.20;2.50;;;;;;;1.59;58.49;99097.00;106140;1270;22538;-61
2022/04/02 01:11:58;;;;;;;12.70;2.50;;;;;;;1.57;58.26;99103.12;107180;1270;23118;-61
2022/04/02 01:14:29;;;;;;;18.90;2.60;;;;;;;1.54;58.44;99100.87;106253;1270;22541;-62
2022/04/02 01:17:01;;;;;;;20.80;3.40;;;;;;;1.52;58.43;99106.42;106113;1270;22541;-60
2022/04/02 01:19:34;;;;;;;15.30;2.50;;;;;;;1.52;58.55;99106.90;106092;1270;22544;-62
2022/04/02 01:22:07;;;;;;;16.00;2.70;;;;;;;1.51;58.52;99108.96;106133;1270;22649;-61
2022/04/02 01:24:39;;;;;;;11.40;2.20;;;;;;;1.50;58.71;99109.79;106205;1270;25320;-60
2022/04/02 01:27:10;;;;;;;14.60;2.40;;;;;;;1.49;58.44;99106.94;106161;1270;25244;-62
2022/04/02 01:29:42;;;;;;;13.10;2.10;;;;;;;1.47;58.50;99106.43;106445;1270;22624;-59
2022/04/02 01:32:13;;;;;;;14.80;2.00;;;;;;;1.46;58.46;99109.00;106373;1271;25582;-61
2022/04/02 01:34:45;;;;;;;13.20;1.90;;;;;;;1.45;58.64;99110.77;106189;1270;22554;-59
2022/04/02 01:37:18;;;;;;;11.30;2.00;;;;;;;1.44;58.68;99116.37;106121;1270;24284;-60
2022/04/02 01:39:49;;;;;;;11.50;2.10;;;;;;;1.42;58.76;99116.60;106185;1270;22550;-60
2022/04/02 01:42:24;;;;;;;12.50;2.10;;;;;;;1.43;58.99;99114.30;106170;1270;22531;-61
2022/04/02 01:44:55;;;;;;;12.30;2.80;;;;;;;1.43;59.10;99115.95;106145;1270;23995;-59
2022/04/02 01:47:27;;;;;;;16.90;3.60;;;;;;;1.44;59.34;99115.03;106111;1270;24264;-61
2022/04/02 01:49:58;;;;;;;9.50;2.20;;;;;;;1.43;59.00;99118.13;106133;1270;22543;-61
2022/04/02 01:52:30;;;;;;;14.10;2.20;;;;;;;1.40;59.06;99118.08;106175;1270;25558;-60
2022/04/02 01:55:01;;;;;;;12.20;2.00;;;;;;;1.40;59.29;99117.23;106086;1270;25366;-60
2022/04/02 01:57:32;;;;;;;10.80;1.70;;;;;;;1.36;58.89;99118.67;106051;1270;22534;-58
2022/04/02 02:00:05;;;;;;;12.20;2.10;;;;;;;1.34;59.10;99116.55;106215;1270;25253;-60
2022/04/02 02:02:37;;;;;;;11.50;2.20;;;;;;;1.33;59.10;99117.60;106240;1270;22561;-62
2022/04/02 02:05:10;;;;;;;8.20;1.70;;;;;;;1.33;59.00;99120.92;106186;1270;22675;-59
2022/04/02 02:07:41;;;;;;;18.80;2.10;;;;;;;1.32;59.06;99121.58;106105;1271;25445;-62
2022/04/02 02:10:13;;;;;;;9.90;2.00;;;;;;;1.32;59.17;99123.00;106253;1271;22550;-60
2022/04/02 02:12:44;;;;;;;12.80;1.80;;;;;;;1.31;59.28;99120.98;107489;1270;25413;-60
2022/04/02 02:15:17;;;;;;;10.80;1.80;;;;;;;1.30;58.91;99120.71;106223;1271;25320;-59
2022/04/02 02:17:50;;;;;;;11.60;2.00;;;;;;;1.29;59.31;99120.27;106052;1271;25366;-59
2022/04/02 02:20:22;;;;;;;10.00;2.00;;;;;;;1.27;59.25;99125.11;106085;1271;26805;-61
2022/04/02 02:22:54;;;;;;;13.30;2.50;;;;;;;1.23;59.53;99128.01;106166;1271;24235;-61
2022/04/02 02:25:26;;;;;;;7.60;1.60;;;;;;;1.15;59.79;99130.23;106168;1271;25455;-62
2022/04/02 02:27:57;;;;;;;9.70;2.00;;;;;;;1.08;60.42;99131.39;106042;1270;22631;-61
2022/04/02 02:30:29;;;;;;;10.30;2.10;;;;;;;1.00;60.53;99134.00;106203;1268;22556;-60
2022/04/02 02:35:51;;;;;;;14.70;3.00;;;;;;;0.88;61.45;99138.64;106070;1271;22570;-61
2022/04/02 02:38:24;;;;;;;11.20;2.10;;;;;;;0.81;61.50;99141.34;106087;1271;22827;-59
2022/04/02 02:40:55;;;;;;;15.10;2.40;;;;;;;0.75;61.99;99139.41;106114;1270;22760;-60
2022/04/02 02:43:27;;;;;;;12.50;2.70;;;;;;;0.71;62.40;99143.33;106093;1271;22525;-59
2022/04/02 02:45:59;;;;;;;11.90;2.00;;;;;;;0.66;62.59;99145.66;106240;1271;23905;-58
2022/04/02 02:48:30;;;;;;;11.50;2.20;;;;;;;0.61;62.77;99146.84;106124;1270;22553;-61
2022/04/02 02:51:01;;;;;;;8.10;2.20;;;;;;;0.58;63.17;99151.48;106196;1270;26666;-59
2022/04/02 02:53:33;;;;;;;12.90;2.60;;;;;;;0.53;63.54;99154.07;106236;1270;26059;-61
2022/04/02 02:56:04;;;;;;;12.40;2.50;;;;;;;0.48;63.53;99150.31;106163;1270;23081;-61
2022/04/02 02:58:36;;;;;;;18.50;2.40;;;;;;;0.45;63.64;99158.14;106143;1271;22605;-62
2022/04/02 03:01:07;;;;;;;10.20;2.40;;;;;;;0.42;64.28;99161.21;106129;1271;25610;-62
2022/04/02 03:03:39;;;;;;;13.50;2.70;;;;;;;0.38;64.49;99164.24;106160;1270;24329;-60
2022/04/02 03:06:11;;;;;;;10.20;2.10;;;;;;;0.34;64.53;99161.45;106171;1271;24265;-61
2022/04/02 03:08:42;;;;;;;11.80;2.40;;;;;;;0.33;64.64;99164.16;106176;1271;24275;-61
2022/04/02 03:11:13;;;;;;;11.70;2.30;;;;;;;0.32;65.09;99165.13;106282;1270;23925;-59
2022/04/02 03:13:45;;;;;;;12.40;2.90;;;;;;;0.30;65.35;99164.88;106108;1270;22648;-61
2022/04/02 03:16:16;;;;;;;15.40;1.90;;;;;;;0.26;65.19;99172.75;106140;1270;22597;-59
2022/04/02 03:18:47;;;;;;;15.90;4.20;;;;;;;0.24;65.54;99172.59;106076;1270;22740;-60
2022/04/02 03:21:21;;;;;;;13.30;2.30;;;;;;;0.22;65.77;99176.18;106082;1271;26740;-60
2022/04/02 03:23:52;;;;;;;11.50;2.40;;;;;;;0.21;65.65;99180.11;106113;1270;24416;-60
2022/04/02 03:26:23;;;;;;;10.60;2.20;;;;;;;0.21;66.12;99178.60;106123;1271;22904;-60
2022/04/02 03:28:55;;;;;;;13.60;3.00;;;;;;;0.19;66.52;99173.73;106107;1270;24253;-61
2022/04/02 03:31:26;;;;;;;9.90;2.50;;;;;;;0.15;66.36;99177.05;106169;1270;26527;-59
2022/04/02 03:33:58;;;;;;;12.70;2.70;;;;;;;0.15;66.30;99185.98;106136;1270;26510;-62
2022/04/02 03:36:30;;;;;;;15.30;3.70;;;;;;;0.13;66.90;99180.40;106116;1270;22574;-60
2022/04/02 03:39:02;;;;;;;10.70;2.70;;;;;;;0.12;66.73;99184.77;106157;1270;25323;-60
2022/04/02 03:41:34;;;;;;;13.80;2.70;;;;;;;0.10;67.05;99186.36;106122;1271;25591;-60
2022/04/02 03:44:06;;;;;;;12.30;2.40;;;;;;;0.10;67.11;99184.35;106260;1270;24296;-61
2022/04/02 03:49:26;;;;;;;11.80;2.30;;;;;;;0.04;67.51;99192.27;106054;1271;22471;-59
2022/04/02 03:51:58;;;;;;;9.90;2.80;;;;;;;0.00;67.86;99194.48;106067;1270;25513;-59
2022/04/02 03:54:29;;;;;;;12.50;3.50;;;;;;;-0.01;67.73;99197.09;106213;1270;25983;-60
2022/04/02 03:57:00;;;;;;;11.60;2.40;;;;;;;0.00;67.82;99195.82;106482;1270;22521;-59
2022/04/02 03:59:32;;;;;;;12.80;2.90;;;;;;;-0.01;67.61;99198.27;106131;1270;24325;-61
2022/04/02 04:02:05;;;;;;;10.20;2.30;;;;;;;-0.00;67.89;99197.55;106239;1270;22510;-62
2022/04/02 04:04:36;;;;;;;10.20;2.40;;;;;;;-0.00;68.24;99199.34;106291;1270;22541;-62
2022/04/02 04:07:09;;;;;;;11.80;3.20;;;;;;;-0.03;68.51;99200.85;106020;1271;22561;-60
2022/04/02 04:09:41;;;;;;;13.70;3.40;;;;;;;-0.02;68.16;99203.95;105959;1270;22478;-61
2022/04/02 04:12:14;;;;;;;8.70;1.80;;;;;;;0.01;68.48;99201.20;106498;1270;25580;-60
2022/04/02 04:14:46;;;;;;;14.10;3.10;;;;;;;0.00;68.47;99203.65;106074;1270;24762;-61
2022/04/02 04:17:17;;;;;;;15.70;3.80;;;;;;;-0.01;68.34;99204.21;106038;1270;23201;-61
2022/04/02 04:19:50;;;;;;;17.00;2.80;;;;;;;0.00;68.66;99209.28;106069;1270;22742;-61
2022/04/02 04:22:25;;;;;;;11.60;2.50;;;;;;;-0.02;68.62;99210.77;105996;1270;22577;-61
2022/04/02 04:24:56;;;;;;;16.70;4.00;;;;;;;-0.03;68.63;99211.25;106229;1270;22716;-62
2022/04/02 04:27:27;;;;;;;10.30;2.40;;;;;;;-0.03;69.21;99215.09;106068;1270;22555;-61
2022/04/02 04:30:00;;;;;;;11.80;3.70;;;;;;;-0.04;69.06;99214.03;106280;1270;22528;-61
2022/04/02 04:32:31;;;;;;;10.70;2.50;;;;;;;-0.07;69.42;99216.45;106177;1270;22537;-60
2022/04/02 04:35:03;;;;;;;13.30;3.30;;;;;;;-0.10;69.48;99221.64;106023;1270;22571;-60
2022/04/02 04:37:37;;;;;;;15.50;3.10;;;;;;;-0.12;69.77;99218.16;105989;1270;25296;-62
2022/04/02 04:40:10;;;;;;;11.20;2.90;;;;;;;-0.13;69.88;99215.77;106174;1270;24245;-60
2022/04/02 04:42:41;;;;;;;19.20;3.00;;;;;;;-0.15;69.92;99225.06;106056;1270;24160;-61
2022/04/02 04:45:14;;;;;;;10.80;3.00;;;;;;;-0.15;70.10;99226.47;106037;1270;22554;-63
2022/04/02 04:47:48;;;;;;;11.20;3.10;;;;;;;-0.16;70.40;99232.05;106065;1270;23167;-61
2022/04/02 04:50:20;;;;;;;12.10;2.90;;;;;;;-0.19;70.65;99230.66;106033;1270;25642;-59
2022/04/02 04:52:51;;;;;;;15.30;3.20;;;;;;;-0.25;70.40;99231.04;106034;1270;26914;-60
2022/04/02 04:55:23;;;;;;;13.30;2.70;;;;;;;-0.29;70.45;99232.41;106194;1270;25332;-61
2022/04/02 04:57:54;;;;;;;13.40;3.10;;;;;;;-0.34;71.07;99235.03;106236;1270;25264;-63
2022/04/02 05:00:26;;;;;;;15.00;2.90;;;;;;;-0.37;70.90;99236.42;106041;1270;22524;-59
2022/04/02 05:02:58;;;;;;;8.70;2.30;;;;;;;-0.37;70.91;99241.30;105937;1271;22516;-60
2022/04/02 05:05:33;;;;;;;13.30;3.10;;;;;;;-0.39;70.70;99241.10;106090;1271;25410;-60
2022/04/02 05:08:05;;;;;;;14.10;2.90;;;;;;;-0.40;71.08;99243.95;105814;1271;25363;-61
2022/04/02 05:10:39;;;;;;;16.50;3.50;;;;;;;-0.41;70.98;99237.33;106110;1270;24767;-65
2022/04/02 05:13:14;;;;;;;12.90;3.60;;;;;;;-0.43;71.45;99239.40;106134;1271;24743;-63
2022/04/02 05:15:46;;;;;;;13.50;3.20;;;;;;;-0.48;71.94;99239.86;105904;1270;22525;-60
2022/04/02 05:18:18;;;;;;;18.40;3.00;;;;;;;-0.54;71.85;99235.39;105792;1271;25295;-60
2022/04/02 05:20:50;;;;;;;16.60;2.60;;;;;;;-0.57;72.17;99238.73;105756;1270;22732;-61
2022/04/02 05:23:22;;;;;;;11.40;2.70;;;;;;;-0.61;72.36;99239.52;105826;1271;24361;-63
2022/04/02 05:25:55;;;;;;;18.20;4.10;;;;;;;-0.63;72.88;99235.49;105925;1271;22554;-62
2022/04/02 05:28:27;;;;;;;16.40;3.60;;;;;;;-0.65;73.21;99237.52;105890;1271;24406;-62
2022/04/02 05:31:00;;;;;;;12.70;2.50;;;;;;;-0.68;73.55;99244.34;105705;1271;22649;-66
2022/04/02 05:33:32;;;;;;;15.50;3.90;;;;;;;-0.73;73.44;99245.92;106020;1271;24535;-62
2022/04/02 05:36:05;;;;;;;12.80;3.30;;;;;;;-0.73;73.41;99245.69;105886;1271;25566;-62
2022/04/02 05:38:37;;;;;;;13.70;3.40;;;;;;;-0.72;73.62;99247.53;105923;1271;24257;-62
2022/04/02 05:41:09;;;;;;;14.00;3.40;;;;;;;-0.70;73.61;99243.05;105928;1271;22544;-62
2022/04/02 05:43:41;;;;;;;12.30;3.30;;;;;;;-0.72;73.97;99250.05;106055;1271;22771;-62
2022/04/02 05:46:15;;;;;;;13.10;3.70;;;;;;;-0.72;73.98;99244.11;106039;1271;26239;-60
2022/04/02 05:48:47;;;;;;;17.50;4.30;;;;;;;-0.75;74.63;99242.60;105669;1271;22750;-63
2022/04/02 05:51:19;;;;;;;16.00;3.80;;;;;;;-0.76;73.83;99247.72;105727;1271;26841;-61
2022/04/02 05:53:51;;;;;;;14.70;3.90;;;;;;;-0.73;73.77;99250.64;105687;1271;22757;-62
2022/04/02 05:56:23;;;;;;;14.40;2.70;;;;;;;-0.71;73.67;99251.38;106011;1271;22595;-62
2022/04/02 05:58:55;;;;;;;14.80;4.10;;;;;;;-0.71;73.59;99256.92;105849;1271;24305;-61
2022/04/02 06:01:27;;;;;;;13.00;3.00;;;;;;;-0.69;73.75;99257.35;105972;1271;23847;-62
2022/04/02 06:04:00;;;;;;;13.20;3.20;;;;;;;-0.69;73.80;99258.99;105908;1271;22705;-62
2022/04/02 06:06:33;;;;;;;16.00;3.90;;;;;;;-0.70;73.39;99259.02;105914;1271;23258;-61
2022/04/02 06:09:05;;;;;;;24.00;5.50;;;;;;;-0.68;73.36;99261.70;105888;1271;24333;-62
2022/04/02 06:11:39;;;;;;;18.80;4.30;;;;;;;-0.67;73.09;99261.99;106053;1271;24250;-64
2022/04/02 06:14:13;;;;;;;21.90;5.20;;;;;;;-0.65;72.87;99265.54;105943;1271;22530;-61
2022/04/02 06:16:45;;;;;;;13.20;3.20;;;;;;;-0.58;72.84;99268.19;106028;1271;22534;-60
2022/04/02 06:19:19;;;;;;;17.90;3.90;;;;;;;-0.52;72.55;99272.06;106295;1271;25191;-62
2022/04/02 06:21:52;;;;;;;10.70;2.60;;;;;;;-0.46;72.35;99270.20;105735;1271;24930;-64
2022/04/02 06:24:24;;;;;;;11.10;2.70;;;;;;;-0.43;72.40;99274.66;106114;1271;24263;-62
2022/04/02 06:26:56;;;;;;;19.50;4.40;;;;;;;-0.42;71.87;99272.98;105914;1271;22548;-61
2022/04/02 06:29:28;;;;;;;18.00;3.70;;;;;;;-0.39;71.93;99270.73;106197;1270;22566;-62
2022/04/02 06:32:00;;;;;;;13.70;2.30;;;;;;;-0.38;71.40;99272.98;106106;1270;24245;-60
2022/04/02 06:34:32;;;;;;;11.80;2.90;;;;;;;-0.37;71.16;99273.98;105990;1271;25375;-61
2022/04/02 06:37:05;;;;;;;16.80;3.00;;;;;;;-0.36;71.01;99274.02;106071;1271;22564;-60
2022/04/02 06:39:38;;;;;;;12.70;3.00;;;;;;;-0.33;70.96;99278.66;105831;1271;25402;-63
2022/04/02 06:42:10;;;;;;;12.70;3.10;;;;;;;-0.29;70.86;99278.56;106087;1270;26776;-62
2022/04/02 06:44:42;;;;;;;13.60;2.60;;;;;;;-0.27;70.46;99280.14;106035;1271;24311;-60
2022/04/02 06:47:14;;;;;;;13.80;3.00;;;;;;;-0.25;69.84;99281.19;106221;1271;25678;-59
2022/04/02 06:49:46;;;;;;;12.00;2.60;;;;;;;-0.21;70.07;99277.32;106083;1271;25258;-58
2022/04/02 06:52:18;;;;;;;12.80;2.20;;;;;;;-0.16;69.09;99280.25;106031;1270;26628;-57
2022/04/02 06:54:51;;;;;;;12.70;2.40;;;;;;;-0.12;68.66;99278.76;105998;1271;24259;-58
2022/04/02 06:57:24;;;;;;;10.20;1.90;;;;;;;-0.09;67.97;99278.98;106311;1271;22561;-59
2022/04/02 06:59:58;;;;;;;11.30;2.40;;;;;;;-0.07;66.58;99284.03;106335;1270;24448;-61
2022/04/02 07:02:31;;;;;;;10.80;2.20;;;;;;;-0.05;66.97;99281.70;106180;1271;25295;-57
2022/04/02 07:05:04;;;;;;;13.90;3.60;;;;;;;-0.02;66.27;99283.36;105758;1271;22522;-56
2022/04/02 07:07:36;;;;;;;13.40;2.80;;;;;;;0.02;67.14;99280.44;106496;1271;72171;-57
2022/04/02 07:10:10;;;;;;;10.00;2.10;;;;;;;0.07;67.38;99285.48;108648;1270;26071;-57
2022/04/02 07:12:42;;;;;;;10.20;1.90;;;;;;;0.13;67.25;99289.95;105818;1271;22647;-56
2022/04/02 07:15:14;;;;;;;13.20;3.00;;;;;;;0.19;67.09;99291.91;105829;1270;22520;-57
2022/04/02 07:17:46;;;;;;;10.60;2.30;;;;;;;0.22;66.44;99292.37;105855;1271;24314;-58
2022/04/02 07:20:27;;;;;;;8.80;2.10;;;;;;;0.25;66.49;99295.75;105891;1271;24322;-58
2022/04/02 07:23:00;;;;;;;9.00;2.30;;;;;;;0.29;66.41;99295.09;105811;1270;22545;-57
2022/04/02 07:25:32;;;;;;;15.40;2.20;;;;;;;0.34;66.25;99293.79;105841;1271;25337;-58
2022/04/02 07:28:05;;;;;;;8.30;1.60;;;;;;;0.38;65.82;99297.04;109664;1270;22678;-60
2022/04/02 07:30:41;;;;;;;14.10;2.30;;;;;;;0.41;65.54;99301.20;106199;1271;22552;-62
2022/04/02 07:33:13;;;;;;;16.10;2.40;;;;;;;0.44;65.51;99298.84;106198;1271;24262;-57
2022/04/02 07:35:56;;;;;;;9.80;1.90;;;;;;;0.46;65.68;99302.08;106177;1270;25568;-61
2022/04/02 07:38:35;;;;;;;12.40;2.50;;;;;;;0.44;64.79;99308.48;109734;1270;22403;-58
2022/04/02 07:41:16;;;;;;;12.00;2.30;;;;;;;0.42;65.39;99309.66;106521;1271;22527;-61
2022/04/02 07:43:56;;;;;;;9.30;1.70;;;;;;;0.44;65.33;99313.29;105979;1271;25336;-56
2022/04/02 07:46:31;;;;;;;8.50;1.80;;;;;;;0.47;65.28;99316.56;106031;1271;23223;-58
2022/04/02 07:49:07;;;;;;;7.30;1.80;;;;;;;0.50;65.10;99313.11;106048;1270;23090;-59
2022/04/02 07:51:40;;;;;;;14.50;2.30;;;;;;;0.55;65.38;99317.44;105999;1270;26137;-59
2022/04/02 07:54:15;;;;;;;13.00;1.70;;;;;;;0.60;64.74;99318.16;106661;1270;25239;-61
2022/04/02 07:56:49;;;;;;;12.40;2.70;;;;;;;0.65;64.60;99317.16;106195;1271;22538;-57
2022/04/02 07:59:44;;;;;;;13.50;2.00;;;;;;;0.72;64.82;99315.88;106176;1271;22560;-58
2022/04/02 08:02:39;;;;;;;12.80;1.90;;;;;;;0.83;65.23;99318.48;106357;1270;22537;-58
2022/04/02 08:05:12;;;;;;;8.00;1.60;;;;;;;0.92;65.49;99320.33;106181;1270;22523;-65
2022/04/02 08:07:49;;;;;;;9.20;1.80;;;;;;;1.00;65.05;99331.89;106448;1271;22629;-60
2022/04/02 08:10:23;;;;;;;8.60;1.80;;;;;;;1.04;65.27;99335.77;106717;1270;23852;-61
2022/04/02 08:12:59;;;;;;;8.60;1.70;;;;;;;1.09;64.40;99330.68;106136;1271;25229;-62
2022/04/02 08:15:34;;;;;;;10.60;2.10;;;;;;;1.07;63.68;99327.59;108431;1270;26486;-59
2022/04/02 08:18:20;;;;;;;9.90;2.10;;;;;;;1.07;63.91;99332.70;107288;1270;22476;-58
2022/04/02 08:20:55;;;;;;;8.70;1.90;;;;;;;1.12;64.66;99331.84;106067;1271;22581;-57
2022/04/02 08:23:27;;;;;;;13.00;2.70;;;;;;;1.21;63.93;99337.02;105856;1271;22556;-58
2022/04/02 08:26:09;;;;;;;10.00;2.00;;;;;;;1.29;63.30;99337.09;108217;1270;25570;-57
2022/04/02 08:29:10;;;;;;;6.90;1.50;;;;;;;1.38;63.19;99335.95;106313;1271;25420;-57
2022/04/02 08:32:01;;;;;;;8.50;1.70;;;;;;;1.47;63.65;99340.61;106569;1271;23014;-56
2022/04/02 08:34:54;;;;;;;6.90;1.40;;;;;;;1.58;63.76;99336.64;106383;1270;25924;-60
2022/04/02 08:37:29;;;;;;;7.00;1.50;;;;;;;1.73;63.67;99340.36;106379;1271;25850;-59
2022/04/02 08:40:11;;;;;;;6.90;1.70;;;;;;;1.86;63.19;99345.44;106716;1271;22541;-57
2022/04/02 08:43:02;;;;;;;10.10;2.00;;;;;;;1.93;63.04;99343.71;106961;1270;22707;-62
2022/04/02 08:45:34;;;;;;;9.00;1.50;;;;;;;2.06;63.54;99337.18;106219;1271;22814;-57
2022/04/02 08:48:24;;;;;;;11.40;1.70;;;;;;;2.20;63.00;99344.94;106484;1271;24262;-58
2022/04/02 08:51:13;;;;;;;7.70;1.40;;;;;;;2.31;62.26;99338.05;106534;1271;22768;-57
2022/04/02 08:53:57;;;;;;;16.30;2.30;;;;;;;2.39;62.62;99340.63;106402;1271;25440;-56
2022/04/02 08:56:35;;;;;;;13.30;3.40;;;;;;;2.47;61.89;99340.48;106249;1271;22550;-57
2022/04/02 08:59:08;;;;;;;7.60;1.80;;;;;;;2.55;61.77;99348.25;106332;1271;24350;-59
2022/04/02 09:01:50;;;;;;;12.10;1.70;;;;;;;2.61;60.90;99347.73;109781;1270;22417;-58
2022/04/02 09:04:55;;;;;;;18.80;4.50;;;;;;;2.66;62.08;99347.71;106637;1271;25349;-58
2022/04/02 09:08:19;;;;;;;31.10;8.40;;;;;;;2.77;61.18;99351.59;105639;1277;22569;-58
2022/04/02 09:11:29;;;;;;;21.40;3.60;;;;;;;2.88;61.20;99354.39;109314;1277;23187;-55
2022/04/02 09:14:48;;;;;;;11.80;1.90;;;;;;;3.02;61.29;99358.52;106093;1284;22761;-53
2022/04/02 09:17:36;;;;;;;8.40;1.40;;;;;;;3.16;60.36;99356.67;104892;1287;22642;-56
2022/04/02 09:20:30;;;;;;;9.30;1.90;;;;;;;3.24;59.63;99359.38;104829;1287;23411;-58
2022/04/02 09:23:15;;;;;;;10.20;2.40;;;;;;;3.32;60.69;99360.36;104765;1288;22581;-58
2022/04/02 09:26:22;;;;;;;6.10;1.50;;;;;;;3.38;59.81;99359.83;104870;1287;22730;-62
2022/04/02 09:29:26;;;;;;;12.00;1.90;;;;;;;3.40;59.07;99364.13;104519;1287;25395;-56
2022/04/02 09:32:36;;;;;;;9.50;1.90;;;;;;;3.46;60.08;99366.91;104055;1293;23526;-56
2022/04/02 09:35:41;;;;;;;9.10;1.80;;;;;;;3.50;59.55;99363.91;103428;1294;836546;-60
2022/04/02 09:38:44;;;;;;;15.10;2.70;;;;;;;3.52;58.80;99368.88;104467;1292;24460;-58
2022/04/02 09:41:32;;;;;;;7.60;1.70;;;;;;;3.54;58.64;99366.98;104479;1293;23492;-56
2022/04/02 09:44:24;;;;;;;8.50;1.50;;;;;;;3.59;59.62;99360.75;104691;1291;22561;-59
2022/04/02 09:47:12;;;;;;;12.60;2.10;;;;;;;3.64;58.55;99362.02;105726;1287;22594;-55
2022/04/02 09:49:58;;;;;;;12.60;3.30;;;;;;;3.67;58.71;99363.98;105199;1284;24444;-58
2022/04/02 09:52:32;;;;;;;10.70;2.20;;;;;;;3.68;58.58;99363.67;105753;1277;22535;-55
2022/04/02 09:55:13;;;;;;;8.80;2.10;;;;;;;3.71;58.34;99366.18;106666;1277;22532;-57
2022/04/02 09:58:15;;;;;;;13.60;2.50;;;;;;;3.75;58.51;99364.99;105475;1277;22557;-56
2022/04/02 10:00:53;;;;;;;14.10;2.80;;;;;;;3.79;57.57;99363.33;105193;1281;23986;-59
2022/04/02 10:03:38;;;;;;;12.60;2.60;;;;;;;3.77;57.38;99362.70;105154;1281;22537;-57
2022/04/02 10:06:28;;;;;;;12.50;2.20;;;;;;;3.76;57.92;99365.52;105025;1281;24380;-58
2022/04/02 10:09:09;;;;;;;11.30;2.40;;;;;;;3.74;57.52;99363.22;105831;1277;24480;-57
2022/04/02 10:11:49;;;;;;;9.90;1.80;;;;;;;3.72;57.21;99362.49;105788;1274;22535;-57
2022/04/02 10:14:23;;;;;;;13.00;2.40;;;;;;;3.70;56.95;99366.91;105632;1275;26031;-55
2022/04/02 10:16:56;;;;;;;16.30;3.20;;;;;;;3.70;57.80;99363.63;105585;1274;22541;-54
2022/04/02 10:19:31;;;;;;;12.70;3.00;;;;;;;3.71;57.10;99364.52;105746;1275;24353;-57
2022/04/02 10:22:06;;;;;;;14.60;3.20;;;;;;;3.71;57.44;99365.69;105641;1274;22552;-56
2022/04/02 10:24:40;;;;;;;16.50;2.50;;;;;;;3.74;57.65;99366.86;105832;1274;22677;-58
2022/04/02 10:27:14;;;;;;;9.80;2.40;;;;;;;3.77;56.84;99369.88;105950;1275;25231;-57
2022/04/02 10:30:10;;;;;;;12.10;2.30;;;;;;;3.79;56.56;99362.46;106107;1275;22554;-60
2022/04/02 10:32:52;;;;;;;14.80;3.60;;;;;;;3.88;57.22;99370.09;106167;1276;24229;-57
2022/04/02 10:35:25;;;;;;;13.90;2.60;;;;;;;3.98;57.13;99363.88;105777;1277;22550;-55
2022/04/02 10:38:09;;;;;;;16.10;4.00;;;;;;;4.07;56.96;99365.14;105772;1274;23167;-57
2022/04/02 10:40:46;;;;;;;15.50;2.70;;;;;;;4.14;56.45;99368.42;106393;1271;22539;-61
2022/04/02 10:43:27;;;;;;;14.00;3.00;;;;;;;4.20;56.47;99364.92;106155;1271;22540;-58
2022/04/02 10:46:01;;;;;;;15.60;3.40;;;;;;;4.23;56.53;99366.60;106050;1271;25254;-58
2022/04/02 10:48:42;;;;;;;13.20;2.50;;;;;;;4.27;56.24;99361.72;105849;1271;25406;-58
2022/04/02 10:51:15;;;;;;;14.30;2.50;;;;;;;4.30;56.06;99358.59;105818;1271;26166;-58
2022/04/02 10:53:47;;;;;;;15.40;3.80;;;;;;;4.31;55.89;99361.70;106161;1271;25891;-58
2022/04/02 10:56:23;;;;;;;14.40;2.70;;;;;;;4.34;56.18;99362.38;105873;1271;25319;-59
2022/04/02 10:58:56;;;;;;;16.50;4.60;;;;;;;4.36;56.47;99354.85;105716;1271;25213;-58
2022/04/02 11:01:28;;;;;;;23.30;6.30;;;;;;;4.40;56.66;99357.45;106156;1271;25345;-58
2022/04/02 11:04:04;;;;;;;16.90;3.80;;;;;;;4.46;56.59;99353.59;107456;1271;22557;-58
2022/04/02 11:06:58;;;;;;;14.50;3.60;;;;;;;4.50;55.33;99348.24;105951;1271;22609;-60
2022/04/02 11:09:39;;;;;;;16.50;3.50;;;;;;;4.57;56.03;99343.30;107029;1271;22542;-58
2022/04/02 11:12:15;;;;;;;18.90;4.90;;;;;;;4.67;56.17;99346.75;106312;1271;22544;-58
2022/04/02 11:14:49;;;;;;;19.50;4.20;;;;;;;4.77;55.78;99347.42;106378;1271;25520;-61
2022/04/02 11:17:32;;;;;;;20.80;6.60;;;;;;;4.84;55.32;99347.34;106106;1270;22547;-57
2022/04/02 11:20:15;;;;;;;15.10;4.20;;;;;;;4.90;54.65;99347.79;105816;1271;22549;-58
2022/04/02 11:23:15;;;;;;;12.70;2.80;;;;;;;4.95;54.95;99348.74;105955;1271;23088;-57
2022/04/02 11:25:54;;;;;;;15.50;3.60;;;;;;;5.04;53.74;99354.91;106153;1271;22671;-58
2022/04/02 11:28:26;;;;;;;22.30;4.30;;;;;;;5.11;54.26;99350.71;106121;1271;24532;-57
2022/04/02 11:31:08;;;;;;;11.30;2.20;;;;;;;5.20;54.61;99349.29;106179;1271;24338;-56
2022/04/02 11:33:52;;;;;;;16.20;3.50;;;;;;;5.28;53.60;99348.28;105989;1271;25369;-58
2022/04/02 11:36:41;;;;;;;15.90;3.60;;;;;;;5.36;53.68;99345.17;105820;1270;22548;-57
2022/04/02 11:39:19;;;;;;;15.30;2.40;;;;;;;5.42;53.42;99340.50;105906;1271;22561;-60
2022/04/02 11:41:58;;;;;;;14.30;2.40;;;;;;;5.50;53.14;99331.63;106030;1271;24214;-58
2022/04/02 11:44:39;;;;;;;13.90;2.10;;;;;;;5.56;53.30;99334.90;105785;1271;25266;-58
2022/04/02 11:47:09;;;;;;;;;;;;;;;5.63;52.67;99341.20;105873;1271;22667;-58
2022/04/02 11:49:43;;;;;;;10.60;2.90;;;;;;;5.67;53.18;99345.09;106112;1271;24947;-58
2022/04/02 11:52:16;;;;;;;12.00;2.40;;;;;;;5.73;52.30;99338.40;105956;1271;24208;-58
2022/04/02 11:55:01;;;;;;;13.20;1.90;;;;;;;5.78;52.19;99343.52;106308;1271;22541;-58
2022/04/02 11:57:32;;;;;;;12.60;2.70;;;;;;;5.76;51.61;99342.89;105976;1271;22690;-59
2022/04/02 12:00:12;;;;;;;13.90;2.40;;;;;;;5.72;50.94;99336.01;106133;1271;25506;-62
2022/04/02 12:02:48;;;;;;;16.40;2.10;;;;;;;5.70;51.44;99335.77;106491;1271;25901;-62
2022/04/02 12:05:20;;;;;;;13.80;2.20;;;;;;;5.73;51.12;99336.38;106098;1270;23907;-62
2022/04/02 12:07:53;;;;;;;11.20;2.50;;;;;;;5.77;51.52;99345.06;106089;1271;22539;-61
2022/04/02 12:10:32;;;;;;;16.40;2.30;;;;;;;5.81;51.23;99343.60;105972;1270;26521;-59